createdAt,value
2023-01-31T00:01:34.091Z,16.14
2023-01-31T00:04:35.543Z,16.13
2023-01-31T00:07:37.592Z,16.09
2023-01-31T00:10:39.348Z,16.07
2023-01-31T00:13:41.188Z,16.06
2023-01-31T00:16:42.617Z,16.04
2023-01-31T00:19:44.124Z,16.03
2023-01-31T00:22:45.550Z,16.03
2023-01-31T00:25:47.033Z,16.01
2023-01-31T00:28:50.480Z,16.00
2023-01-31T00:31:53.374Z,15.97
2023-01-31T00:34:54.999Z,15.96
2023-01-31T00:37:56.581Z,15.95
2023-01-31T00:40:59.570Z,15.94
2023-01-31T00:44:01.364Z,15.94
2023-01-31T00:47:03.032Z,15.93
2023-01-31T00:50:05.818Z,15.93
2023-01-31T00:53:07.452Z,15.94
2023-01-31T00:56:15.966Z,15.96
2023-01-31T00:59:17.682Z,15.95
2023-01-31T01:02:19.169Z,15.95
2023-01-31T01:05:20.996Z,15.96
2023-01-31T01:08:22.627Z,15.96
2023-01-31T01:11:30.233Z,15.95
2023-01-31T01:14:32.162Z,15.94
2023-01-31T01:17:33.971Z,15.95
2023-01-31T01:20:36.591Z,15.95
2023-01-31T01:23:39.499Z,15.94
2023-01-31T01:26:41.547Z,15.93
2023-01-31T01:29:43.042Z,15.91
2023-01-31T01:32:44.909Z,15.90
2023-01-31T01:35:46.439Z,15.90
2023-01-31T01:38:48.423Z,15.88
2023-01-31T01:41:51.178Z,15.87
2023-01-31T01:44:58.837Z,15.87
2023-01-31T01:48:06.178Z,15.85
2023-01-31T01:51:08.240Z,15.84
2023-01-31T01:54:15.481Z,15.84
2023-01-31T01:57:24.038Z,15.82
2023-01-31T02:00:30.100Z,15.81
2023-01-31T02:03:31.594Z,15.80
2023-01-31T02:06:36.375Z,15.82
2023-01-31T02:10:12.251Z,15.84
2023-01-31T02:13:15.280Z,15.84
2023-01-31T02:16:19.395Z,15.84
2023-01-31T02:19:52.755Z,15.85
2023-01-31T02:23:22.310Z,15.85
2023-01-31T02:26:35.949Z,15.84
2023-01-31T02:29:49.718Z,15.83
2023-01-31T02:33:20.201Z,15.84
2023-01-31T02:36:30.728Z,15.81
2023-01-31T02:40:04.911Z,15.82
2023-01-31T02:43:18.193Z,15.80
2023-01-31T02:46:22.208Z,15.80
2023-01-31T02:49:36.921Z,15.80
2023-01-31T02:52:56.376Z,15.79
2023-01-31T02:56:14.899Z,15.77
2023-01-31T02:59:26.900Z,15.75
2023-01-31T03:02:30.403Z,15.74
2023-01-31T03:05:31.908Z,15.74
2023-01-31T03:08:34.085Z,15.74
2023-01-31T03:11:53.315Z,15.74
2023-01-31T03:15:13.479Z,15.72
2023-01-31T03:18:20.095Z,15.72
2023-01-31T03:21:39.894Z,15.72
2023-01-31T03:24:43.756Z,15.74
2023-01-31T03:27:52.703Z,15.76
2023-01-31T03:31:10.746Z,15.78
2023-01-31T03:34:15.784Z,15.79
2023-01-31T03:37:31.449Z,15.79
2023-01-31T03:40:50.733Z,15.80
2023-01-31T03:44:01.472Z,15.80
2023-01-31T03:47:24.719Z,15.80
2023-01-31T03:50:38.539Z,15.78
2023-01-31T03:53:53.661Z,15.79
2023-01-31T03:57:02.270Z,15.76
2023-01-31T04:00:07.589Z,15.76
2023-01-31T04:03:38.183Z,15.76
2023-01-31T04:06:40.109Z,15.76
2023-01-31T04:09:43.799Z,15.79
2023-01-31T04:12:46.811Z,15.81
2023-01-31T04:15:48.331Z,15.82
2023-01-31T04:18:50.327Z,15.85
2023-01-31T04:21:51.858Z,15.88
2023-01-31T04:24:53.385Z,15.91
2023-01-31T04:27:54.888Z,15.93
2023-01-31T04:30:57.125Z,15.96
2023-01-31T04:33:59.721Z,15.97
2023-01-31T04:37:01.295Z,15.99
2023-01-31T04:40:03.616Z,16.01
2023-01-31T04:43:05.113Z,16.02
2023-01-31T04:46:06.591Z,16.03
2023-01-31T04:49:08.857Z,16.05
2023-01-31T04:52:13.483Z,16.05
2023-01-31T04:55:15.040Z,16.06
2023-01-31T04:58:16.576Z,16.08
2023-01-31T05:01:18.176Z,16.09
2023-01-31T05:04:20.409Z,16.10
2023-01-31T05:07:22.061Z,16.11
2023-01-31T05:10:23.570Z,16.09
2023-01-31T05:13:25.325Z,16.09
2023-01-31T05:16:26.837Z,16.08
2023-01-31T05:19:28.418Z,16.08
2023-01-31T05:22:29.945Z,16.07
2023-01-31T05:25:31.713Z,16.06
2023-01-31T05:28:33.241Z,16.03
2023-01-31T05:31:34.851Z,16.02
2023-01-31T05:34:36.939Z,16.01
2023-01-31T05:37:42.315Z,15.99
2023-01-31T05:40:43.789Z,15.98
2023-01-31T05:43:45.244Z,15.96
2023-01-31T05:46:46.763Z,15.94
2023-01-31T05:49:48.246Z,15.92
2023-01-31T05:52:54.933Z,15.92
2023-01-31T05:55:56.299Z,15.92
2023-01-31T05:58:57.926Z,15.92
2023-01-31T06:01:59.898Z,15.95
2023-01-31T06:05:01.830Z,15.96
2023-01-31T06:08:03.396Z,16.00
2023-01-31T06:11:05.736Z,16.01
2023-01-31T06:14:08.682Z,16.03
2023-01-31T06:17:10.252Z,16.03
2023-01-31T06:20:11.869Z,16.04
2023-01-31T06:23:13.357Z,16.05
2023-01-31T06:26:14.972Z,16.08
2023-01-31T06:29:16.527Z,16.09
2023-01-31T06:32:18.103Z,16.09
2023-01-31T06:35:19.833Z,16.10
2023-01-31T06:38:21.454Z,16.10
2023-01-31T06:41:22.990Z,16.11
2023-01-31T06:44:26.527Z,16.11
2023-01-31T06:47:28.141Z,16.10
2023-01-31T06:50:29.588Z,16.11
2023-01-31T06:53:31.469Z,16.10
2023-01-31T06:56:32.990Z,16.08
2023-01-31T06:59:34.455Z,16.08
2023-01-31T07:02:35.945Z,16.06
2023-01-31T07:05:37.466Z,16.05
2023-01-31T07:08:39.027Z,16.03
2023-01-31T07:11:40.506Z,16.02
2023-01-31T07:14:42.538Z,16.00
2023-01-31T07:17:44.201Z,15.98
2023-01-31T07:20:45.723Z,15.96
2023-01-31T07:23:47.279Z,15.94
2023-01-31T07:26:53.024Z,15.93
2023-01-31T07:29:54.577Z,15.91
2023-01-31T07:32:56.129Z,15.90
2023-01-31T07:35:57.628Z,15.87
2023-01-31T07:39:00.931Z,15.86
2023-01-31T07:42:02.527Z,15.85
2023-01-31T07:45:21.981Z,15.83
2023-01-31T07:48:24.241Z,15.81
2023-01-31T07:51:25.728Z,15.79
2023-01-31T07:54:27.188Z,15.79
2023-01-31T07:57:31.236Z,15.78
2023-01-31T08:00:51.034Z,15.75
2023-01-31T08:03:52.626Z,15.74
2023-01-31T08:06:55.675Z,15.73
2023-01-31T08:09:57.181Z,15.71
2023-01-31T08:12:58.653Z,15.70
2023-01-31T08:16:00.138Z,15.68
2023-01-31T08:19:01.722Z,15.66
2023-01-31T08:22:04.653Z,15.65
2023-01-31T08:25:06.311Z,15.67
2023-01-31T08:28:07.836Z,15.69
2023-01-31T08:31:18.566Z,15.73
2023-01-31T08:34:20.574Z,15.75
2023-01-31T08:37:22.116Z,15.77
2023-01-31T08:40:23.621Z,15.81
2023-01-31T08:43:25.208Z,15.82
2023-01-31T08:46:30.809Z,15.85
2023-01-31T08:49:36.215Z,15.87
2023-01-31T08:52:37.740Z,15.90
2023-01-31T08:55:39.217Z,15.92
2023-01-31T08:58:42.495Z,15.96
2023-01-31T09:01:46.541Z,15.99
2023-01-31T09:04:49.465Z,16.01
2023-01-31T09:07:51.219Z,16.05
2023-01-31T09:10:56.576Z,16.09
2023-01-31T09:13:58.227Z,16.15
2023-01-31T09:16:59.827Z,16.18
2023-01-31T09:20:06.450Z,16.20
2023-01-31T09:23:07.912Z,16.24
2023-01-31T09:26:11.729Z,16.26
2023-01-31T09:29:13.285Z,16.27
2023-01-31T09:32:14.879Z,16.28
2023-01-31T09:35:17.141Z,16.29
2023-01-31T09:38:18.602Z,16.30
2023-01-31T09:41:32.094Z,16.31
2023-01-31T09:44:42.127Z,16.32
2023-01-31T09:47:48.893Z,16.32
2023-01-31T09:50:55.802Z,16.31
2023-01-31T09:53:57.733Z,16.31
2023-01-31T09:57:03.356Z,16.30
2023-01-31T10:00:23.314Z,16.30
2023-01-31T10:03:35.185Z,16.31
2023-01-31T10:06:50.802Z,16.32
2023-01-31T10:10:21.881Z,16.33
2023-01-31T10:13:31.683Z,16.32
2023-01-31T10:16:45.719Z,16.33
2023-01-31T10:19:57.155Z,16.33
2023-01-31T10:23:12.675Z,16.35
2023-01-31T10:26:22.806Z,16.35
2023-01-31T10:29:32.714Z,16.36
2023-01-31T10:32:42.102Z,16.35
2023-01-31T10:35:44.985Z,16.36
2023-01-31T10:39:06.256Z,16.37
2023-01-31T10:42:19.927Z,16.38
2023-01-31T10:45:31.069Z,16.37
2023-01-31T10:48:33.387Z,16.36
2023-01-31T10:51:57.623Z,16.38
2023-01-31T10:54:59.033Z,16.37
2023-01-31T10:58:00.620Z,16.38
2023-01-31T11:01:08.214Z,16.40
2023-01-31T11:04:41.245Z,16.43
2023-01-31T11:07:42.885Z,16.41
2023-01-31T11:10:52.828Z,16.42
2023-01-31T11:14:03.818Z,16.42
2023-01-31T11:17:14.448Z,16.43
2023-01-31T11:20:24.919Z,16.42
2023-01-31T11:23:29.785Z,16.42
2023-01-31T11:26:38.204Z,16.42
2023-01-31T11:29:43.504Z,16.42
2023-01-31T11:32:45.532Z,16.42
2023-01-31T11:35:51.982Z,16.43
2023-01-31T11:38:54.559Z,16.42
2023-01-31T11:41:56.052Z,16.42
2023-01-31T11:44:58.900Z,16.43
2023-01-31T11:48:16.179Z,16.44
2023-01-31T11:51:31.728Z,16.45
2023-01-31T11:54:34.885Z,16.44
2023-01-31T11:57:38.215Z,16.43
2023-01-31T12:00:53.299Z,16.45
2023-01-31T12:04:06.565Z,16.45
2023-01-31T12:07:26.650Z,16.45
2023-01-31T12:10:37.054Z,16.44
2023-01-31T12:13:53.393Z,16.45
2023-01-31T12:16:56.476Z,16.45
2023-01-31T12:20:26.971Z,16.45
2023-01-31T12:23:29.301Z,16.44
2023-01-31T12:26:54.041Z,16.45
2023-01-31T12:30:37.222Z,16.49
2023-01-31T12:34:03.802Z,16.50
2023-01-31T12:37:24.030Z,16.49
2023-01-31T12:40:43.939Z,16.52
2023-01-31T12:44:03.867Z,16.52
2023-01-31T12:47:30.989Z,16.54
2023-01-31T12:50:32.455Z,16.53
2023-01-31T12:53:41.254Z,16.55
2023-01-31T12:57:01.758Z,16.60
2023-01-31T13:00:27.360Z,16.62
2023-01-31T13:03:47.160Z,16.63
2023-01-31T13:06:55.478Z,16.65
2023-01-31T13:10:02.077Z,16.69
2023-01-31T13:13:05.426Z,16.71
2023-01-31T13:16:13.260Z,16.73
2023-01-31T13:19:26.591Z,16.75
2023-01-31T13:22:33.784Z,16.76
2023-01-31T13:25:51.200Z,16.79
2023-01-31T13:28:58.015Z,16.82
2023-01-31T13:32:02.073Z,16.84
2023-01-31T13:35:15.491Z,16.85
2023-01-31T13:38:20.849Z,16.86
2023-01-31T13:41:27.978Z,16.89
2023-01-31T13:44:29.555Z,16.89
2023-01-31T13:47:43.389Z,16.91
2023-01-31T13:50:52.280Z,16.91
2023-01-31T13:54:00.314Z,16.92
2023-01-31T13:57:03.320Z,16.93
2023-01-31T14:00:35.882Z,16.96
2023-01-31T14:04:11.795Z,16.95
2023-01-31T14:07:16.253Z,16.95
2023-01-31T14:10:17.689Z,16.97
2023-01-31T14:13:39.116Z,16.98
2023-01-31T14:16:46.261Z,16.99
2023-01-31T14:19:47.792Z,17.00
2023-01-31T14:23:28.017Z,17.03
2023-01-31T14:26:54.794Z,17.04
2023-01-31T14:30:05.787Z,17.04
2023-01-31T14:33:13.475Z,17.05
2023-01-31T14:36:47.289Z,17.07
2023-01-31T14:40:22.128Z,17.09
2023-01-31T14:43:49.965Z,17.10
2023-01-31T14:47:25.931Z,17.11
2023-01-31T14:51:05.061Z,17.11
2023-01-31T14:54:37.440Z,17.13
2023-01-31T14:57:43.520Z,17.13
2023-01-31T15:00:58.425Z,17.13
2023-01-31T15:04:00.541Z,17.12
2023-01-31T15:07:02.070Z,17.12
2023-01-31T15:10:04.783Z,17.13
2023-01-31T15:13:45.316Z,17.14
2023-01-31T15:16:47.119Z,17.14
2023-01-31T15:19:51.633Z,17.13
2023-01-31T15:22:57.266Z,17.15
2023-01-31T15:26:01.013Z,17.15
2023-01-31T15:29:04.495Z,17.15
2023-01-31T15:32:19.440Z,17.19
2023-01-31T15:35:27.802Z,17.21
2023-01-31T15:38:34.348Z,17.20
2023-01-31T15:41:44.021Z,17.21
2023-01-31T15:44:45.481Z,17.20
2023-01-31T15:48:09.039Z,17.22
2023-01-31T15:51:14.338Z,17.22
2023-01-31T15:54:15.877Z,17.22
2023-01-31T15:57:18.074Z,17.23
2023-01-31T16:00:26.886Z,17.25
2023-01-31T16:03:36.781Z,17.28
2023-01-31T16:06:39.749Z,17.29
2023-01-31T16:09:41.352Z,17.28
2023-01-31T16:12:48.608Z,17.28
2023-01-31T16:15:50.522Z,17.26
2023-01-31T16:18:54.687Z,17.25
2023-01-31T16:21:57.661Z,17.24
2023-01-31T16:25:01.788Z,17.23
2023-01-31T16:28:11.006Z,17.23
2023-01-31T16:31:16.461Z,17.22
2023-01-31T16:34:38.451Z,17.09
2023-01-31T16:37:43.391Z,16.78
2023-01-31T16:40:48.092Z,16.42
2023-01-31T16:43:51.037Z,16.06
2023-01-31T16:46:53.716Z,15.89
2023-01-31T16:50:15.134Z,15.92
2023-01-31T16:53:41.029Z,15.99
2023-01-31T16:57:05.788Z,16.08
2023-01-31T17:00:31.390Z,16.21
2023-01-31T17:03:34.716Z,16.29
2023-01-31T17:06:37.906Z,16.37
2023-01-31T17:09:39.640Z,16.43
2023-01-31T17:12:43.448Z,16.49
2023-01-31T17:15:45.560Z,16.53
2023-01-31T17:18:47.080Z,16.56
2023-01-31T17:21:50.064Z,16.60
2023-01-31T17:24:51.887Z,16.63
2023-01-31T17:27:53.529Z,16.65
2023-01-31T17:30:55.045Z,16.70
2023-01-31T17:33:56.961Z,16.72
2023-01-31T17:36:58.421Z,16.75
2023-01-31T17:40:00.255Z,16.77
2023-01-31T17:43:04.605Z,16.80
2023-01-31T17:46:06.912Z,16.80
2023-01-31T17:49:08.521Z,16.82
2023-01-31T17:52:10.318Z,16.82
2023-01-31T17:55:12.890Z,16.84
2023-01-31T17:58:15.701Z,16.85
2023-01-31T18:01:17.679Z,16.87
2023-01-31T18:04:19.206Z,16.88
2023-01-31T18:07:20.733Z,16.90
2023-01-31T18:10:22.288Z,16.91
2023-01-31T18:13:23.754Z,16.93
2023-01-31T18:16:26.075Z,16.95
2023-01-31T18:19:28.317Z,16.96
2023-01-31T18:22:29.874Z,16.98
2023-01-31T18:25:31.688Z,17.01
2023-01-31T18:28:33.440Z,17.01
2023-01-31T18:31:34.995Z,17.02
2023-01-31T18:34:37.516Z,17.03
2023-01-31T18:37:38.942Z,17.04
2023-01-31T18:40:40.382Z,17.05
2023-01-31T18:43:43.097Z,17.07
2023-01-31T18:46:44.773Z,17.06
2023-01-31T18:49:46.273Z,17.08
2023-01-31T18:52:47.737Z,17.09
2023-01-31T18:55:49.173Z,17.10
2023-01-31T18:58:52.421Z,17.13
2023-01-31T19:01:53.982Z,17.14
2023-01-31T19:04:55.470Z,17.14
2023-01-31T19:07:56.895Z,17.11
2023-01-31T19:11:13.232Z,17.11
2023-01-31T19:14:14.976Z,17.09
2023-01-31T19:17:17.200Z,17.08
2023-01-31T19:20:18.741Z,17.07
2023-01-31T19:23:20.470Z,17.07
2023-01-31T19:26:22.237Z,17.07
2023-01-31T19:29:23.724Z,17.07
2023-01-31T19:32:25.338Z,17.06
2023-01-31T19:35:30.213Z,17.05
2023-01-31T19:38:31.663Z,17.03
2023-01-31T19:41:33.853Z,17.04
2023-01-31T19:44:35.364Z,17.03
2023-01-31T19:47:37.305Z,17.02
2023-01-31T19:50:40.425Z,17.02
2023-01-31T19:53:43.237Z,17.01
2023-01-31T19:56:45.060Z,17.00
2023-01-31T19:59:46.566Z,17.01
2023-01-31T20:02:48.114Z,16.99
2023-01-31T20:05:50.037Z,16.98
2023-01-31T20:08:57.056Z,17.00
2023-01-31T20:11:58.549Z,16.97
2023-01-31T20:15:00.122Z,16.98
2023-01-31T20:18:01.608Z,17.00
2023-01-31T20:21:03.671Z,17.00
2023-01-31T20:24:05.943Z,17.00
2023-01-31T20:27:07.378Z,16.99
2023-01-31T20:30:09.764Z,17.01
2023-01-31T20:33:11.750Z,17.01
2023-01-31T20:36:13.767Z,17.02
2023-01-31T20:39:15.237Z,17.01
2023-01-31T20:42:17.207Z,17.00
2023-01-31T20:45:18.689Z,17.01
2023-01-31T20:48:20.825Z,17.01
2023-01-31T20:51:22.273Z,17.01
2023-01-31T20:54:23.834Z,17.01
2023-01-31T20:57:25.376Z,17.01
2023-01-31T21:00:26.835Z,17.02
2023-01-31T21:03:29.372Z,17.04
2023-01-31T21:06:30.880Z,17.03
2023-01-31T21:09:32.383Z,17.04
2023-01-31T21:12:33.946Z,17.05
2023-01-31T21:15:35.535Z,17.06
2023-01-31T21:18:39.147Z,17.08
2023-01-31T21:21:40.753Z,17.07
2023-01-31T21:24:42.256Z,17.07
2023-01-31T21:27:43.794Z,17.09
2023-01-31T21:30:45.492Z,17.09
2023-01-31T21:33:49.338Z,17.11
2023-01-31T21:36:50.784Z,17.10
2023-01-31T21:39:53.160Z,17.09
2023-01-31T21:42:54.853Z,17.10
2023-01-31T21:45:56.594Z,17.10
2023-01-31T21:48:59.655Z,17.11
2023-01-31T21:52:01.915Z,17.10
2023-01-31T21:55:03.550Z,17.10
2023-01-31T21:58:04.985Z,17.10
2023-01-31T22:01:17.664Z,17.12
2023-01-31T22:04:23.371Z,17.12
2023-01-31T22:07:24.935Z,17.10
2023-01-31T22:10:26.481Z,17.11
2023-01-31T22:13:27.998Z,17.10
2023-01-31T22:16:29.842Z,17.09
2023-01-31T22:19:31.306Z,17.06
2023-01-31T22:22:32.755Z,17.05
2023-01-31T22:25:36.821Z,17.03
2023-01-31T22:28:39.039Z,17.01
2023-01-31T22:31:40.695Z,16.97
2023-01-31T22:34:42.317Z,16.95
2023-01-31T22:37:43.769Z,16.91
2023-01-31T22:40:46.259Z,16.91
2023-01-31T22:43:49.852Z,16.90
2023-01-31T22:46:51.329Z,16.85
2023-01-31T22:49:52.813Z,16.84
2023-01-31T22:52:54.267Z,16.81
2023-01-31T22:56:00.881Z,16.79
2023-01-31T22:59:04.261Z,16.76
2023-01-31T23:02:06.380Z,16.73
2023-01-31T23:05:08.196Z,16.71
2023-01-31T23:08:13.317Z,16.69
2023-01-31T23:11:16.713Z,16.68
2023-01-31T23:14:18.267Z,16.65
2023-01-31T23:17:37.933Z,16.64
2023-01-31T23:20:39.364Z,16.61
2023-01-31T23:23:42.743Z,16.59
2023-01-31T23:26:44.391Z,16.59
2023-01-31T23:29:45.872Z,16.57
2023-01-31T23:32:47.480Z,16.55
2023-01-31T23:35:49.593Z,16.53
2023-01-31T23:38:51.029Z,16.50
2023-01-31T23:41:52.465Z,16.51
2023-01-31T23:44:53.999Z,16.49
2023-01-31T23:47:55.482Z,16.47
2023-01-31T23:51:02.814Z,16.47
2023-01-31T23:54:04.300Z,16.45
2023-01-31T23:57:05.928Z,16.43
